Aérodrome :
LOGIN :

S'inscrire | Disclaimer

   EN    FR    IT 

 










Légende :    VFR   VFR Marginal   IFR   IFR Intensif   IFR Très Intensif
Visi : 
Plafond : 
>= 8 km
>= 3000ft
5 à 8 km
1000 à 3000 ft
1500m à 5 km
500 à 1000 ft
800 à 1500m
200 à 500 ft
< 800m
< 200 ft
Symboles :   Orages  Brouillard  Fortes neiges  Fortes précipitations  Vent > 20 kt
SIGMETs :   Divers  Orages  Givrage  Turbulence  Onde Orograph.  Cendres Volcan.






- Altitude de l'aérodrome : 306 ft
- Code IATA : EMA


EGNX - Nottingham East Midlands

DERNIER METAR :
  • 210150Z 28007KT CAVOK M01/M03 Q1039

METARs EXPIRÉS :
  • 210120Z 28007KT CAVOK M02/M03 Q1039
  • 210050Z 28007KT CAVOK M01/M03 Q1039
  • 210020Z 28007KT CAVOK M01/M03 Q1040
  • 202350Z 28008KT CAVOK M01/M03 Q1039
  • 202320Z 27008KT CAVOK M01/M03 Q1039

TAF TAF EGNX
Valide du 21 à 00h jusqu'au 22 à 00h UTC


202254Z 2100/2124 29008KT 9999 FEW040
PROB30
TEMPO 2103/2110 8000
PROB30
TEMPO 2112/2118 BKN014
ATIS : +44 1332 852 852 (ext 3201)



MET'MAP, la Météo Aéronautique d'un coup d'oeil ! - Copyright ORBIFLY Décembre 2007 - Disclaimer

ORBIFLY MET'MAP TEAM :

Programmation & Développement : Alexandra Zaïnal
Sur une idée originale de : Baudouin d'Aumeries
Assistance à la programmation : Marc-Olivier Méhu
Soutien technique & logistique : Manuel Goepfert

Contact : metmap@orbifly.com




SOURCES & CREDITS :

   NOAA